sensor_id;sensor_type;location;lat;lon;timestamp;pressure;altitude;pressure_sealevel;temperature;humidity
55656;BME280;41530;52.382;5.270;2023-07-09T00:03:32;101859.13;;;27.94;45.15
55656;BME280;41530;52.382;5.270;2023-07-09T00:06:11;101893.97;;;28.10;45.14
55656;BME280;41530;52.382;5.270;2023-07-09T00:08:45;101827.13;;;27.70;45.32
55656;BME280;41530;52.382;5.270;2023-07-09T00:11:19;101847.38;;;27.80;45.22
55656;BME280;41530;52.382;5.270;2023-07-09T00:14:32;101892.13;;;28.11;45.48
55656;BME280;41530;52.382;5.270;2023-07-09T00:20:26;101836.66;;;27.65;45.25
55656;BME280;41530;52.382;5.270;2023-07-09T00:22:58;101880.13;;;27.92;45.30
55656;BME280;41530;52.382;5.270;2023-07-09T00:25:58;101882.56;;;27.87;45.51
55656;BME280;41530;52.382;5.270;2023-07-09T00:29:00;101845.97;;;27.63;45.61
55656;BME280;41530;52.382;5.270;2023-07-09T00:31:59;101869.53;;;27.69;45.64
55656;BME280;41530;52.382;5.270;2023-07-09T00:34:46;101894.19;;;27.81;45.37
55656;BME280;41530;52.382;5.270;2023-07-09T00:37:36;101872.19;;;27.62;45.38
55656;BME280;41530;52.382;5.270;2023-07-09T00:40:19;101874.41;;;27.59;45.58
55656;BME280;41530;52.382;5.270;2023-07-09T00:43:15;101858.66;;;27.41;45.31
55656;BME280;41530;52.382;5.270;2023-07-09T00:52:20;101922.25;;;27.58;45.50
55656;BME280;41530;52.382;5.270;2023-07-09T00:55:20;101895.66;;;27.41;45.88
55656;BME280;41530;52.382;5.270;2023-07-09T00:58:08;101909.41;;;27.46;45.20
55656;BME280;41530;52.382;5.270;2023-07-09T01:01:09;101871.28;;;27.19;45.55
55656;BME280;41530;52.382;5.270;2023-07-09T01:06:49;101888.97;;;27.22;45.59
55656;BME280;41530;52.382;5.270;2023-07-09T01:09:54;101895.59;;;27.19;45.62
55656;BME280;41530;52.382;5.270;2023-07-09T01:12:46;101900.34;;;27.17;45.88
55656;BME280;41530;52.382;5.270;2023-07-09T01:15:38;101927.63;;;27.37;45.97
55656;BME280;41530;52.382;5.270;2023-07-09T01:18:24;101923.88;;;27.38;45.58
55656;BME280;41530;52.382;5.270;2023-07-09T01:21:10;101880.72;;;27.09;46.01
55656;BME280;41530;52.382;5.270;2023-07-09T01:27:03;101893.69;;;27.13;46.03
55656;BME280;41530;52.382;5.270;2023-07-09T01:29:39;101892.72;;;27.21;46.22
55656;BME280;41530;52.382;5.270;2023-07-09T01:32:21;101879.69;;;27.10;46.05
55656;BME280;41530;52.382;5.270;2023-07-09T01:35:06;101933.28;;;27.42;45.82
55656;BME280;41530;52.382;5.270;2023-07-09T01:37:37;101928.06;;;27.41;46.11
55656;BME280;41530;52.382;5.270;2023-07-09T01:40:06;101929.09;;;27.40;45.95
55656;BME280;41530;52.382;5.270;2023-07-09T01:42:57;101927.25;;;27.40;45.84
55656;BME280;41530;52.382;5.270;2023-07-09T01:45:27;101929.94;;;27.40;46.01
55656;BME280;41530;52.382;5.270;2023-07-09T01:47:55;101927.41;;;27.39;46.04
55656;BME280;41530;52.382;5.270;2023-07-09T01:50:23;101931.63;;;27.41;46.16
55656;BME280;41530;52.382;5.270;2023-07-09T01:52:52;101928.91;;;27.41;46.20
55656;BME280;41530;52.382;5.270;2023-07-09T01:55:20;101932.22;;;27.43;46.24
55656;BME280;41530;52.382;5.270;2023-07-09T01:57:47;101936.84;;;27.43;45.82
55656;BME280;41530;52.382;5.270;2023-07-09T02:00:16;101940.56;;;27.42;46.03
55656;BME280;41530;52.382;5.270;2023-07-09T02:02:45;101938.88;;;27.41;46.28
55656;BME280;41530;52.382;5.270;2023-07-09T02:05:17;101935.34;;;27.40;46.35
55656;BME280;41530;52.382;5.270;2023-07-09T02:07:44;101936.38;;;27.39;46.05
55656;BME280;41530;52.382;5.270;2023-07-09T02:10:12;101930.97;;;27.39;46.08
55656;BME280;41530;52.382;5.270;2023-07-09T02:12:39;101932.81;;;27.39;46.47
55656;BME280;41530;52.382;5.270;2023-07-09T02:15:06;101939.25;;;27.38;46.47
55656;BME280;41530;52.382;5.270;2023-07-09T02:17:33;101937.22;;;27.40;46.35
55656;BME280;41530;52.382;5.270;2023-07-09T02:20:00;101937.59;;;27.37;46.02
55656;BME280;41530;52.382;5.270;2023-07-09T02:22:27;101930.69;;;27.34;46.47
55656;BME280;41530;52.382;5.270;2023-07-09T02:24:53;101933.13;;;27.29;46.48
55656;BME280;41530;52.382;5.270;2023-07-09T02:27:20;101929.78;;;27.27;46.38
55656;BME280;41530;52.382;5.270;2023-07-09T02:29:48;101928.47;;;27.23;46.32
55656;BME280;41530;52.382;5.270;2023-07-09T02:32:21;101927.38;;;27.17;46.30
55656;BME280;41530;52.382;5.270;2023-07-09T02:34:48;101935.88;;;27.14;46.40
55656;BME280;41530;52.382;5.270;2023-07-09T02:37:16;101932.72;;;27.11;46.53
55656;BME280;41530;52.382;5.270;2023-07-09T02:39:46;101936.16;;;27.05;46.58
55656;BME280;41530;52.382;5.270;2023-07-09T02:42:15;101944.84;;;27.00;46.64
55656;BME280;41530;52.382;5.270;2023-07-09T02:44:42;101940.00;;;26.95;46.78
55656;BME280;41530;52.382;5.270;2023-07-09T02:47:10;101935.94;;;26.91;46.51
55656;BME280;41530;52.382;5.270;2023-07-09T02:49:37;101935.31;;;26.89;46.80
55656;BME280;41530;52.382;5.270;2023-07-09T02:52:05;101935.50;;;26.88;46.65
55656;BME280;41530;52.382;5.270;2023-07-09T02:54:32;101937.19;;;26.89;46.98
55656;BME280;41530;52.382;5.270;2023-07-09T02:56:59;101934.47;;;26.89;46.88
55656;BME280;41530;52.382;5.270;2023-07-09T02:59:25;101932.63;;;26.89;47.29
55656;BME280;41530;52.382;5.270;2023-07-09T03:01:56;101929.91;;;26.89;47.09
55656;BME280;41530;52.382;5.270;2023-07-09T03:04:23;101927.22;;;26.89;47.00
55656;BME280;41530;52.382;5.270;2023-07-09T03:06:51;101931.78;;;26.89;47.25
55656;BME280;41530;52.382;5.270;2023-07-09T03:09:18;101937.38;;;26.87;47.23
55656;BME280;41530;52.382;5.270;2023-07-09T03:11:45;101931.97;;;26.87;47.07
55656;BME280;41530;52.382;5.270;2023-07-09T03:14:12;101940.72;;;26.89;46.89
55656;BME280;41530;52.382;5.270;2023-07-09T03:16:39;101931.97;;;26.87;47.28
55656;BME280;41530;52.382;5.270;2023-07-09T03:19:06;101933.00;;;26.86;47.16
55656;BME280;41530;52.382;5.270;2023-07-09T03:21:33;101937.56;;;26.86;47.22
55656;BME280;41530;52.382;5.270;2023-07-09T03:24:01;101935.88;;;26.85;47.34
55656;BME280;41530;52.382;5.270;2023-07-09T03:26:28;101944.16;;;26.83;47.48
55656;BME280;41530;52.382;5.270;2023-07-09T03:28:55;101940.63;;;26.83;47.65
55656;BME280;41530;52.382;5.270;2023-07-09T03:31:22;101943.13;;;26.84;47.15
55656;BME280;41530;52.382;5.270;2023-07-09T03:33:50;101944.63;;;26.87;47.22
55656;BME280;41530;52.382;5.270;2023-07-09T03:36:18;101947.16;;;26.88;46.85
55656;BME280;41530;52.382;5.270;2023-07-09T03:38:48;101942.59;;;26.89;47.25
55656;BME280;41530;52.382;5.270;2023-07-09T03:41:15;101943.22;;;26.91;47.12
55656;BME280;41530;52.382;5.270;2023-07-09T03:43:42;101943.03;;;26.92;47.14
55656;BME280;41530;52.382;5.270;2023-07-09T03:46:09;101946.75;;;26.91;47.18
55656;BME280;41530;52.382;5.270;2023-07-09T03:48:36;101940.31;;;26.92;47.11
55656;BME280;41530;52.382;5.270;2023-07-09T03:51:02;101941.53;;;26.90;47.22
55656;BME280;41530;52.382;5.270;2023-07-09T03:53:29;101938.03;;;26.89;47.65
55656;BME280;41530;52.382;5.270;2023-07-09T03:55:56;101939.41;;;26.85;47.37
55656;BME280;41530;52.382;5.270;2023-07-09T03:58:24;101948.34;;;26.86;47.53
55656;BME280;41530;52.382;5.270;2023-07-09T04:00:52;101951.06;;;26.86;47.49
55656;BME280;41530;52.382;5.270;2023-07-09T04:03:21;101952.06;;;26.85;47.63
55656;BME280;41530;52.382;5.270;2023-07-09T04:05:48;101960.84;;;26.87;47.60
55656;BME280;41530;52.382;5.270;2023-07-09T04:08:15;101957.94;;;26.88;47.63
55656;BME280;41530;52.382;5.270;2023-07-09T04:10:42;101956.09;;;26.89;47.42
55656;BME280;41530;52.382;5.270;2023-07-09T04:13:09;101949.19;;;26.86;47.30
55656;BME280;41530;52.382;5.270;2023-07-09T04:15:36;101956.28;;;26.87;47.64
55656;BME280;41530;52.382;5.270;2023-07-09T04:18:02;101950.22;;;26.85;47.59
55656;BME280;41530;52.382;5.270;2023-07-09T04:20:29;101964.56;;;26.86;47.46
55656;BME280;41530;52.382;5.270;2023-07-09T04:22:56;101952.91;;;26.85;47.43
55656;BME280;41530;52.382;5.270;2023-07-09T04:25:23;101960.84;;;26.87;47.58
55656;BME280;41530;52.382;5.270;2023-07-09T04:27:49;101968.09;;;26.86;47.72
55656;BME280;41530;52.382;5.270;2023-07-09T04:30:17;101968.09;;;26.86;47.72
55656;BME280;41530;52.382;5.270;2023-07-09T04:32:46;101966.22;;;26.87;47.75
55656;BME280;41530;52.382;5.270;2023-07-09T04:35:13;101961.50;;;26.89;47.89
55656;BME280;41530;52.382;5.270;2023-07-09T04:37:41;101972.06;;;26.90;48.10
55656;BME280;41530;52.382;5.270;2023-07-09T04:40:09;101970.22;;;26.91;47.75
55656;BME280;41530;52.382;5.270;2023-07-09T04:42:39;101975.44;;;26.92;47.50
55656;BME280;41530;52.382;5.270;2023-07-09T04:45:07;101973.59;;;26.93;47.57
55656;BME280;41530;52.382;5.270;2023-07-09T04:47:35;101978.81;;;26.94;48.07
55656;BME280;41530;52.382;5.270;2023-07-09T04:50:03;101974.06;;;26.96;47.71
55656;BME280;41530;52.382;5.270;2023-07-09T04:52:30;101980.13;;;26.99;47.96
55656;BME280;41530;52.382;5.270;2023-07-09T04:54:57;101979.94;;;27.00;47.77
55656;BME280;41530;52.382;5.270;2023-07-09T04:57:26;101972.50;;;27.02;47.61
55656;BME280;41530;52.382;5.270;2023-07-09T04:59:53;101969.59;;;27.04;48.09
55656;BME280;41530;52.382;5.270;2023-07-09T05:02:19;101964.84;;;27.06;47.87
55656;BME280;41530;52.382;5.270;2023-07-09T05:04:46;101961.13;;;27.07;47.66
55656;BME280;41530;52.382;5.270;2023-07-09T05:07:13;101953.84;;;27.07;47.86
55656;BME280;41530;52.382;5.270;2023-07-09T05:09:39;101955.53;;;27.08;47.97
55656;BME280;41530;52.382;5.270;2023-07-09T05:12:07;101957.00;;;27.11;48.02
55656;BME280;41530;52.382;5.270;2023-07-09T05:14:34;101957.00;;;27.11;47.89
55656;BME280;41530;52.382;5.270;2023-07-09T05:17:01;101964.56;;;27.15;47.96
55656;BME280;41530;52.382;5.270;2023-07-09T05:19:27;101963.31;;;27.18;47.97
55656;BME280;41530;52.382;5.270;2023-07-09T05:21:54;101962.97;;;27.21;48.06
55656;BME280;41530;52.382;5.270;2023-07-09T05:24:21;101964.44;;;27.23;48.26
55656;BME280;41530;52.382;5.270;2023-07-09T05:26:47;101961.38;;;27.26;48.08
55656;BME280;41530;52.382;5.270;2023-07-09T05:29:14;101962.66;;;27.30;48.16
55656;BME280;41530;52.382;5.270;2023-07-09T05:31:41;101963.94;;;27.35;48.18
55656;BME280;41530;52.382;5.270;2023-07-09T05:34:08;101961.91;;;27.37;48.22
55656;BME280;41530;52.382;5.270;2023-07-09T05:36:35;101957.81;;;27.41;48.09
55656;BME280;41530;52.382;5.270;2023-07-09T05:39:02;101961.78;;;27.45;48.11
55656;BME280;41530;52.382;5.270;2023-07-09T05:41:28;101957.50;;;27.50;48.51
55656;BME280;41530;52.382;5.270;2023-07-09T05:43:55;101962.19;;;27.56;48.84
55656;BME280;41530;52.382;5.270;2023-07-09T05:46:22;101956.34;;;27.59;48.95
55656;BME280;41530;52.382;5.270;2023-07-09T05:48:49;101953.56;;;27.67;48.33
55656;BME280;41530;52.382;5.270;2023-07-09T05:51:16;101956.50;;;27.73;48.31
55656;BME280;41530;52.382;5.270;2023-07-09T05:53:43;101952.38;;;27.77;48.44
55656;BME280;41530;52.382;5.270;2023-07-09T05:56:09;101954.53;;;27.81;48.29
55656;BME280;41530;52.382;5.270;2023-07-09T05:58:37;101956.63;;;27.86;48.51
55656;BME280;41530;52.382;5.270;2023-07-09T06:01:03;101947.94;;;27.90;48.10
55656;BME280;41530;52.382;5.270;2023-07-09T06:03:30;101941.97;;;27.95;48.33
55656;BME280;41530;52.382;5.270;2023-07-09T06:05:57;101961.78;;;28.02;47.94
55656;BME280;41530;52.382;5.270;2023-07-09T06:08:24;101958.50;;;28.07;48.14
55656;BME280;41530;52.382;5.270;2023-07-09T06:11:01;101962.28;;;28.12;47.41
55656;BME280;41530;52.382;5.270;2023-07-09T06:13:30;101959.19;;;28.15;47.61
55656;BME280;41530;52.382;5.270;2023-07-09T06:16:00;101960.31;;;28.21;47.37
55656;BME280;41530;52.382;5.270;2023-07-09T06:18:28;101961.56;;;28.25;47.12
55656;BME280;41530;52.382;5.270;2023-07-09T06:20:59;101953.06;;;28.28;47.17
55656;BME280;41530;52.382;5.270;2023-07-09T06:23:26;101968.53;;;28.34;47.23
55656;BME280;41530;52.382;5.270;2023-07-09T06:25:53;101966.06;;;28.39;47.14
55656;BME280;41530;52.382;5.270;2023-07-09T06:28:23;101971.53;;;28.46;47.06
55656;BME280;41530;52.382;5.270;2023-07-09T06:30:50;101973.63;;;28.50;47.13
55656;BME280;41530;52.382;5.270;2023-07-09T06:33:18;101973.06;;;28.55;47.10
55656;BME280;41530;52.382;5.270;2023-07-09T06:35:49;101976.00;;;28.60;47.09
55656;BME280;41530;52.382;5.270;2023-07-09T06:38:17;101978.09;;;28.64;47.18
55656;BME280;41530;52.382;5.270;2023-07-09T06:40:44;101976.03;;;28.66;47.27
55656;BME280;41530;52.382;5.270;2023-07-09T06:43:11;101981.25;;;28.68;46.99
55656;BME280;41530;52.382;5.270;2023-07-09T06:45:38;101993.38;;;28.72;47.21
55656;BME280;41530;52.382;5.270;2023-07-09T06:48:05;101991.97;;;28.76;47.58
55656;BME280;41530;52.382;5.270;2023-07-09T06:50:33;101995.47;;;28.77;47.11
55656;BME280;41530;52.382;5.270;2023-07-09T06:53:00;101997.63;;;28.81;47.27
55656;BME280;41530;52.382;5.270;2023-07-09T06:55:27;102006.41;;;28.83;47.30
55656;BME280;41530;52.382;5.270;2023-07-09T06:57:54;102003.28;;;28.86;47.04
55656;BME280;41530;52.382;5.270;2023-07-09T07:00:21;102005.38;;;28.91;47.01
55656;BME280;41530;52.382;5.270;2023-07-09T07:02:47;102008.53;;;28.94;47.08
55656;BME280;41530;52.382;5.270;2023-07-09T07:05:14;102011.50;;;28.99;47.15
55656;BME280;41530;52.382;5.270;2023-07-09T07:07:41;102008.16;;;29.04;46.96
55656;BME280;41530;52.382;5.270;2023-07-09T07:10:08;102015.91;;;29.07;47.07
55656;BME280;41530;52.382;5.270;2023-07-09T07:12:43;102019.91;;;29.11;46.89
55656;BME280;41530;52.382;5.270;2023-07-09T07:15:12;102020.13;;;29.16;46.96
55656;BME280;41530;52.382;5.270;2023-07-09T07:17:40;102025.97;;;29.20;47.19
55656;BME280;41530;52.382;5.270;2023-07-09T07:20:08;102027.66;;;29.21;46.90
55656;BME280;41530;52.382;5.270;2023-07-09T07:22:35;102029.75;;;29.25;47.01
55656;BME280;41530;52.382;5.270;2023-07-09T07:25:02;102029.13;;;29.30;47.07
55656;BME280;41530;52.382;5.270;2023-07-09T07:27:29;102026.88;;;29.33;46.93
55656;BME280;41530;52.382;5.270;2023-07-09T07:29:55;102022.94;;;29.36;46.74
55656;BME280;41530;52.382;5.270;2023-07-09T07:32:22;102027.16;;;29.38;46.88
55656;BME280;41530;52.382;5.270;2023-07-09T07:34:49;102034.66;;;29.43;46.93
55656;BME280;41530;52.382;5.270;2023-07-09T07:37:18;102035.28;;;29.45;46.42
55656;BME280;41530;52.382;5.270;2023-07-09T07:39:49;102024.69;;;29.50;46.37
55656;BME280;41530;52.382;5.270;2023-07-09T07:42:16;102027.84;;;29.54;46.38
55656;BME280;41530;52.382;5.270;2023-07-09T07:44:43;102030.94;;;29.57;46.34
55656;BME280;41530;52.382;5.270;2023-07-09T07:47:09;102041.19;;;29.62;46.35
55656;BME280;41530;52.382;5.270;2023-07-09T07:49:38;102038.94;;;29.65;46.29
55656;BME280;41530;52.382;5.270;2023-07-09T07:52:06;102033.94;;;29.69;46.08
55656;BME280;41530;52.382;5.270;2023-07-09T07:54:33;102033.50;;;29.72;46.11
55656;BME280;41530;52.382;5.270;2023-07-09T07:57:00;102026.63;;;29.76;46.39
55656;BME280;41530;52.382;5.270;2023-07-09T07:59:27;102039.41;;;29.82;45.89
55656;BME280;41530;52.382;5.270;2023-07-09T08:01:53;102039.81;;;29.86;45.78
55656;BME280;41530;52.382;5.270;2023-07-09T08:04:20;102045.47;;;29.91;45.97
55656;BME280;41530;52.382;5.270;2023-07-09T08:06:47;102041.31;;;29.95;45.83
55656;BME280;41530;52.382;5.270;2023-07-09T08:09:15;102040.50;;;30.01;45.97
55656;BME280;41530;52.382;5.270;2023-07-09T08:11:41;102036.34;;;30.05;46.12
55656;BME280;41530;52.382;5.270;2023-07-09T08:14:09;102034.06;;;30.08;45.52
55656;BME280;41530;52.382;5.270;2023-07-09T08:16:36;102045.75;;;30.16;45.79
55656;BME280;41530;52.382;5.270;2023-07-09T08:19:03;102044.69;;;30.17;45.71
55656;BME280;41530;52.382;5.270;2023-07-09T08:21:30;102049.06;;;30.24;45.78
55656;BME280;41530;52.382;5.270;2023-07-09T08:23:56;102042.84;;;30.30;45.77
55656;BME280;41530;52.382;5.270;2023-07-09T08:26:23;102042.63;;;30.32;45.33
55656;BME280;41530;52.382;5.270;2023-07-09T08:28:51;102038.66;;;30.34;44.86
55656;BME280;41530;52.382;5.270;2023-07-09T08:31:17;102038.03;;;30.39;45.08
55656;BME280;41530;52.382;5.270;2023-07-09T08:33:44;102028.00;;;30.39;44.03
55656;BME280;41530;52.382;5.270;2023-07-09T08:36:11;102029.69;;;30.47;44.51
55656;BME280;41530;52.382;5.270;2023-07-09T08:38:38;102028.00;;;30.53;44.24
55656;BME280;41530;52.382;5.270;2023-07-09T08:46:49;102037.66;;;30.62;42.12
55656;BME280;41530;52.382;5.270;2023-07-09T08:49:21;102017.78;;;30.55;42.47
55656;BME280;41530;52.382;5.270;2023-07-09T08:51:50;102031.34;;;30.68;43.64
55656;BME280;41530;52.382;5.270;2023-07-09T08:54:32;102035.31;;;30.72;41.81
55656;BME280;41530;52.382;5.270;2023-07-09T08:57:14;102030.53;;;30.74;42.10
55656;BME280;41530;52.382;5.270;2023-07-09T08:59:44;102031.56;;;30.73;41.80
55656;BME280;41530;52.382;5.270;2023-07-09T09:02:33;102032.19;;;30.75;41.62
55656;BME280;41530;52.382;5.270;2023-07-09T09:05:03;102022.78;;;30.71;41.66
55656;BME280;41530;52.382;5.270;2023-07-09T09:07:39;102030.50;;;30.67;41.33
55656;BME280;41530;52.382;5.270;2023-07-09T09:10:11;102027.38;;;30.64;41.10
55656;BME280;41530;52.382;5.270;2023-07-09T09:15:23;102018.63;;;30.55;41.66
55656;BME280;41530;52.382;5.270;2023-07-09T09:17:54;102026.09;;;30.53;41.09
55656;BME280;41530;52.382;5.270;2023-07-09T09:20:23;102023.59;;;30.52;41.77
55656;BME280;41530;52.382;5.270;2023-07-09T09:25:37;102025.91;;;30.48;41.16
55656;BME280;41530;52.382;5.270;2023-07-09T09:28:07;102021.53;;;30.47;41.51
55656;BME280;41530;52.382;5.270;2023-07-09T09:30:34;102014.22;;;30.47;41.63
55656;BME280;41530;52.382;5.270;2023-07-09T09:33:05;102013.78;;;30.51;42.00
55656;BME280;41530;52.382;5.270;2023-07-09T09:35:37;102013.38;;;30.47;41.75
55656;BME280;41530;52.382;5.270;2023-07-09T09:38:22;102013.56;;;30.52;41.77
55656;BME280;41530;52.382;5.270;2023-07-09T09:40:49;102013.19;;;30.55;42.30
55656;BME280;41530;52.382;5.270;2023-07-09T09:43:18;102004.00;;;30.56;42.60
55656;BME280;41530;52.382;5.270;2023-07-09T09:45:48;101988.09;;;30.53;42.21
55656;BME280;41530;52.382;5.270;2023-07-09T09:48:18;101991.25;;;30.57;41.88
55656;BME280;41530;52.382;5.270;2023-07-09T09:50:47;101993.13;;;30.56;42.18
55656;BME280;41530;52.382;5.270;2023-07-09T09:53:24;101990.00;;;30.59;42.34
55656;BME280;41530;52.382;5.270;2023-07-09T09:55:52;101996.06;;;30.61;42.13
55656;BME280;41530;52.382;5.270;2023-07-09T09:58:25;101997.09;;;30.60;42.14
55656;BME280;41530;52.382;5.270;2023-07-09T10:00:56;102005.88;;;30.62;41.90
55656;BME280;41530;52.382;5.270;2023-07-09T10:03:35;102004.81;;;30.63;41.69
55656;BME280;41530;52.382;5.270;2023-07-09T10:06:15;102010.25;;;30.63;41.26
55656;BME280;41530;52.382;5.270;2023-07-09T10:08:49;102012.97;;;30.63;41.37
55656;BME280;41530;52.382;5.270;2023-07-09T10:11:24;102008.16;;;30.65;41.40
55656;BME280;41530;52.382;5.270;2023-07-09T10:14:00;102008.56;;;30.69;41.51
55656;BME280;41530;52.382;5.270;2023-07-09T10:16:44;102014.84;;;30.69;41.51
55656;BME280;41530;52.382;5.270;2023-07-09T10:19:25;102001.88;;;30.71;41.43
55656;BME280;41530;52.382;5.270;2023-07-09T10:22:06;102003.34;;;30.74;41.53
55656;BME280;41530;52.382;5.270;2023-07-09T10:27:36;101989.97;;;30.72;41.60
55656;BME280;41530;52.382;5.270;2023-07-09T10:30:23;101998.75;;;30.68;40.84
55656;BME280;41530;52.382;5.270;2023-07-09T10:33:09;101993.75;;;30.71;40.62
55656;BME280;41530;52.382;5.270;2023-07-09T10:41:11;102021.75;;;30.72;41.45
55656;BME280;41530;52.382;5.270;2023-07-09T10:43:45;102021.53;;;30.73;41.60
55656;BME280;41530;52.382;5.270;2023-07-09T10:46:17;102025.28;;;30.72;41.20
55656;BME280;41530;52.382;5.270;2023-07-09T10:48:48;102023.84;;;30.70;40.83
55656;BME280;41530;52.382;5.270;2023-07-09T10:53:59;102018.19;;;30.65;40.71
55656;BME280;41530;52.382;5.270;2023-07-09T10:56:32;102027.38;;;30.64;40.60
55656;BME280;41530;52.382;5.270;2023-07-09T10:59:26;102037.66;;;30.62;40.67
55656;BME280;41530;52.382;5.270;2023-07-09T11:02:01;102030.53;;;30.61;41.03
55656;BME280;41530;52.382;5.270;2023-07-09T11:04:37;102020.09;;;30.58;40.15
55656;BME280;41530;52.382;5.270;2023-07-09T11:07:12;102011.94;;;30.58;40.57
55656;BME280;41530;52.382;5.270;2023-07-09T11:09:43;102002.31;;;30.55;40.55
55656;BME280;41530;52.382;5.270;2023-07-09T11:12:16;101992.31;;;30.56;41.12
55656;BME280;41530;52.382;5.270;2023-07-09T11:15:02;101993.34;;;30.55;40.24
55656;BME280;41530;52.382;5.270;2023-07-09T11:17:30;101993.72;;;30.52;40.49
55656;BME280;41530;52.382;5.270;2023-07-09T11:19:59;101986.41;;;30.52;40.13
55656;BME280;41530;52.382;5.270;2023-07-09T11:22:40;101976.78;;;30.49;40.13
55656;BME280;41530;52.382;5.270;2023-07-09T11:25:13;101966.19;;;30.48;40.15
55656;BME280;41530;52.382;5.270;2023-07-09T11:28:06;101973.47;;;30.47;39.93
55656;BME280;41530;52.382;5.270;2023-07-09T11:30:33;101982.69;;;30.46;40.70
55656;BME280;41530;52.382;5.270;2023-07-09T11:35:54;101987.69;;;30.43;40.95
55656;BME280;41530;52.382;5.270;2023-07-09T11:38:42;101990.81;;;30.40;40.75
55656;BME280;41530;52.382;5.270;2023-07-09T11:52:45;101989.78;;;30.34;43.70
55656;BME280;41530;52.382;5.270;2023-07-09T11:55:39;101980.19;;;30.32;44.04
55656;BME280;41530;52.382;5.270;2023-07-09T11:58:10;101985.41;;;30.33;44.52
55656;BME280;41530;52.382;5.270;2023-07-09T12:00:42;101919.41;;;30.00;44.25
55656;BME280;41530;52.382;5.270;2023-07-09T12:03:30;101976.63;;;30.31;44.48
55656;BME280;41530;52.382;5.270;2023-07-09T12:06:04;101944.03;;;30.11;44.29
55656;BME280;41530;52.382;5.270;2023-07-09T12:08:36;101935.50;;;30.01;44.13
55656;BME280;41530;52.382;5.270;2023-07-09T12:11:25;101934.03;;;29.99;44.07
55656;BME280;41530;52.382;5.270;2023-07-09T12:14:05;101939.88;;;29.96;44.16
55656;BME280;41530;52.382;5.270;2023-07-09T12:16:36;101946.16;;;30.03;44.46
55656;BME280;41530;52.382;5.270;2023-07-09T12:19:13;101938.00;;;30.03;44.73
55656;BME280;41530;52.382;5.270;2023-07-09T12:21:51;101944.06;;;30.05;44.81
55656;BME280;41530;52.382;5.270;2023-07-09T12:24:27;101957.44;;;30.20;44.36
55656;BME280;41530;52.382;5.270;2023-07-09T12:27:00;101958.66;;;30.10;44.65
55656;BME280;41530;52.382;5.270;2023-07-09T12:29:39;101972.03;;;30.12;44.63
55656;BME280;41530;52.382;5.270;2023-07-09T12:32:16;101968.69;;;30.10;44.78
55656;BME280;41530;52.382;5.270;2023-07-09T12:34:50;101968.69;;;30.17;44.73
55656;BME280;41530;52.382;5.270;2023-07-09T12:37:18;101988.50;;;30.37;44.45
55656;BME280;41530;52.382;5.270;2023-07-09T12:39:52;101955.75;;;30.19;44.34
55656;BME280;41530;52.382;5.270;2023-07-09T12:42:28;101968.69;;;30.23;44.14
55656;BME280;41530;52.382;5.270;2023-07-09T12:45:02;101996.25;;;30.40;44.26
55656;BME280;41530;52.382;5.270;2023-07-09T12:47:35;101964.50;;;30.14;44.41
55656;BME280;41530;52.382;5.270;2023-07-09T12:50:34;101970.78;;;30.21;44.29
55656;BME280;41530;52.382;5.270;2023-07-09T12:53:19;101994.59;;;30.32;44.14
55656;BME280;41530;52.382;5.270;2023-07-09T12:55:48;102009.41;;;30.36;44.17
55656;BME280;41530;52.382;5.270;2023-07-09T12:58:22;102016.50;;;30.44;44.21
55656;BME280;41530;52.382;5.270;2023-07-09T13:00:53;101977.06;;;30.22;44.01
55656;BME280;41530;52.382;5.270;2023-07-09T13:03:31;102001.69;;;30.33;43.63
55656;BME280;41530;52.382;5.270;2023-07-09T13:06:01;102009.00;;;30.33;43.47
55656;BME280;41530;52.382;5.270;2023-07-09T13:08:32;102021.34;;;30.35;43.69
55656;BME280;41530;52.382;5.270;2023-07-09T13:11:00;102025.06;;;30.41;44.01
55656;BME280;41530;52.382;5.270;2023-07-09T13:13:32;102008.59;;;30.36;43.54
55656;BME280;41530;52.382;5.270;2023-07-09T13:16:05;102034.25;;;30.53;43.54
55656;BME280;41530;52.382;5.270;2023-07-09T13:18:32;102002.53;;;30.34;43.87
55656;BME280;41530;52.382;5.270;2023-07-09T13:21:03;101994.19;;;30.35;43.08
55656;BME280;41530;52.382;5.270;2023-07-09T13:23:40;101960.97;;;30.20;43.19
55656;BME280;41530;52.382;5.270;2023-07-09T13:26:12;102006.28;;;30.39;43.46
55656;BME280;41530;52.382;5.270;2023-07-09T13:28:39;101993.34;;;30.35;42.95
55656;BME280;41530;52.382;5.270;2023-07-09T13:31:17;102004.81;;;30.37;42.68
55656;BME280;41530;52.382;5.270;2023-07-09T13:33:58;101977.25;;;30.20;42.33
55656;BME280;41530;52.382;5.270;2023-07-09T13:36:39;102000.44;;;30.36;42.75
55656;BME280;41530;52.382;5.270;2023-07-09T13:39:09;101998.53;;;30.36;42.99
55656;BME280;41530;52.382;5.270;2023-07-09T13:41:54;102005.03;;;30.35;43.19
55656;BME280;41530;52.382;5.270;2023-07-09T13:44:23;102006.47;;;30.25;42.98
55656;BME280;41530;52.382;5.270;2023-07-09T13:46:57;102003.78;;;30.18;43.37
55656;BME280;41530;52.382;5.270;2023-07-09T13:49:34;102060.59;;;30.46;43.38
55656;BME280;41530;52.382;5.270;2023-07-09T13:52:01;102048.03;;;30.38;43.25
55656;BME280;41530;52.382;5.270;2023-07-09T13:54:35;102049.09;;;30.31;42.85
55656;BME280;41530;52.382;5.270;2023-07-09T13:57:12;102028.00;;;30.26;42.98
55656;BME280;41530;52.382;5.270;2023-07-09T13:59:43;102024.22;;;30.27;43.23
55656;BME280;41530;52.382;5.270;2023-07-09T14:02:30;102019.44;;;30.23;42.83
55656;BME280;41530;52.382;5.270;2023-07-09T14:05:05;102044.50;;;30.44;42.91
55656;BME280;41530;52.382;5.270;2023-07-09T14:07:35;102045.97;;;30.40;42.99
55656;BME280;41530;52.382;5.270;2023-07-09T14:10:15;102035.09;;;30.40;43.03